CSAV Rio Maipo — V2ER2 — position and weather

sailwx.info

Track history (hours):
 
Tides and Currents Weather Stations Pressure Air Temp Water Temp Dewpoint Dewpoint Depression Visibility Wind Speed Wind Dir Waves Ship Positions

CSAV Rio Maipo

Last reported at 2017-Nov-18 21:30 UTC. Time now 2017-Nov-18 21:51 UTC.
Position N 45°34' E 013°44'.

Length 183 m; draft 8.7 m.

Type: Ship. MMSI: 305523000.

Date/timePositionNaut miles runAvg speedWind from/ knotsBaromVisibWave heightAir tempDewpointWater temp
2017-Nov-18 21:30N 45°34' E 013°44'0 0.0
2017-Nov-18 21:01N 45°34' E 013°44'0 0.0
2017-Nov-18 20:30N 45°34' E 013°44'0 0.0
2017-Nov-18 20:00N 45°34' E 013°44'0 0.0
2017-Nov-18 19:30N 45°34' E 013°44'0 0.0
2017-Nov-18 19:01N 45°34' E 013°44'0 0.0
2017-Nov-18 18:30N 45°34' E 013°44'0 0.0
2017-Nov-18 18:01N 45°34' E 013°44'0 0.0
2017-Nov-18 17:31N 45°34' E 013°44'0 0.0
2017-Nov-18 17:01N 45°34' E 013°44'0 0.0
2017-Nov-18 16:31N 45°34' E 013°44'0 0.0
2017-Nov-18 16:00N 45°34' E 013°44'0 0.0
2017-Nov-18 15:31N 45°34' E 013°44'0 0.0
2017-Nov-18 15:00N 45°34' E 013°44'0 0.0
2017-Nov-18 14:31N 45°34' E 013°44'0 0.0
2017-Nov-18 14:00N 45°34' E 013°44'0 0.0
2017-Nov-18 13:30N 45°34' E 013°44'0 0.0
2017-Nov-18 13:00N 45°34' E 013°44'0 0.0
2017-Nov-18 12:31N 45°34' E 013°44'0 0.0
2017-Nov-18 12:01N 45°34' E 013°44'0 0.0
2017-Nov-18 11:31N 45°34' E 013°44'0 0.0
2017-Nov-18 11:00N 45°34' E 013°44'0 0.0
2017-Nov-18 10:31N 45°34' E 013°44'0 0.0
2017-Nov-18 10:00N 45°34' E 013°44'0 0.0
2017-Nov-18 09:30N 45°34' E 013°44'0 0.0
2017-Nov-18 09:00N 45°34' E 013°44'0 0.0
2017-Nov-18 08:31N 45°34' E 013°44'0 0.0
2017-Nov-18 08:01N 45°34' E 013°44'0 0.0
2017-Nov-18 07:31N 45°34' E 013°44'0 0.0
2017-Nov-18 07:01N 45°34' E 013°44'0 0.4
2017-Nov-18 06:30N 45°33' E 013°44'1 2.2
2017-Nov-18 06:00N 45°34' E 013°42'2 3.1
2017-Nov-18 05:31N 45°35' E 013°41'0 0.9
2017-Nov-18 04:59N 45°35' E 013°40'0 0.1
2017-Nov-18 04:31N 45°35' E 013°41'0 0.1
2017-Nov-18 04:00N 45°35' E 013°40'0 0.1
2017-Nov-18 03:30N 45°35' E 013°40'0 0.0
2017-Nov-18 03:01N 45°35' E 013°40'0 0.0
2017-Nov-18 02:31N 45°35' E 013°40'0 0.0
2017-Nov-18 02:01N 45°35' E 013°40'0 0.0
2017-Nov-18 01:31N 45°35' E 013°41'0 0.1
2017-Nov-18 01:01N 45°35' E 013°40'0 0.0
2017-Nov-18 00:31N 45°35' E 013°40'0 0.1
2017-Nov-18 00:00N 45°35' E 013°41'0 0.1
2017-Nov-17 23:31N 45°35' E 013°40'0 0.2
2017-Nov-17 23:01N 45°35' E 013°41'0 0.1
2017-Nov-17 22:31N 45°35' E 013°40'0 0.1
2017-Nov-17 22:01N 45°35' E 013°41'0 0.1
2017-Nov-17 21:31N 45°35' E 013°40'0 0.1
2017-Nov-17 21:01N 45°35' E 013°41'0 0.1
2017-Nov-17 20:30N 45°35' E 013°41'0 0.1
2017-Nov-17 20:00N 45°35' E 013°41'0 0.0
2017-Nov-17 19:31N 45°35' E 013°41'0 0.0
2017-Nov-17 19:01N 45°35' E 013°41'0 0.0
2017-Nov-17 18:31N 45°35' E 013°40'0 0.0
2017-Nov-17 18:01N 45°35' E 013°41'0 0.0
2017-Nov-17 17:30N 45°35' E 013°41'0 0.1
2017-Nov-17 17:00N 45°35' E 013°41'0 0.1
2017-Nov-17 16:31N 45°35' E 013°40'0 0.0
2017-Nov-17 16:01N 45°35' E 013°41'0 0.0
2017-Nov-17 15:31N 45°35' E 013°40'0 0.0
2017-Nov-17 15:00N 45°35' E 013°41'0 0.1
2017-Nov-17 14:30N 45°35' E 013°41'0 0.0
2017-Nov-17 14:00N 45°35' E 013°41'0 0.2
2017-Nov-17 13:31N 45°35' E 013°41'0 0.1
2017-Nov-17 13:01N 45°35' E 013°41'0 0.1
2017-Nov-17 12:30N 45°35' E 013°41'0 0.1
2017-Nov-17 12:00N 45°35' E 013°41'0 0.2
2017-Nov-17 11:31N 45°35' E 013°41'3 5.3
2017-Nov-17 11:00N 45°35' E 013°37'4 8.6
2017-Nov-17 10:31N 45°34' E 013°31'611.7
2017-Nov-17 10:00N 45°31' E 013°24'5 9.6
2017-Nov-17 09:30N 45°28' E 013°18'612.1
2017-Nov-17 09:00N 45°24' E 013°12'611.8
2017-Nov-17 08:30N 45°18' E 013°12'612.8
2017-Nov-17 08:00N 45°12' E 013°14'713.0
2017-Nov-17 07:30N 45°05' E 013°17'612.8
2017-Nov-17 07:00N 44°59' E 013°20'612.9
2017-Nov-17 06:30N 44°54' E 013°24'612.9
2017-Nov-17 06:00N 44°48' E 013°29'612.9
2017-Nov-17 05:30N 44°43' E 013°34'612.9
2017-Nov-17 05:01N 44°37' E 013°39'713.0
2017-Nov-17 04:30N 44°32' E 013°44'612.8
2017-Nov-17 04:01N 44°27' E 013°49'612.7
2017-Nov-17 03:31N 44°21' E 013°54'612.5
2017-Nov-17 03:00N 44°16' E 013°59'612.6
2017-Nov-17 02:31N 44°11' E 014°04'  
2017-Nov-14 16:51N 37°12' E 023°43'612.3
2017-Nov-14 16:23N 37°17' E 023°45'512.4
2017-Nov-14 16:00N 37°22' E 023°45'612.3
2017-Nov-14 15:30N 37°28' E 023°45'612.2
2017-Nov-14 15:01N 37°34' E 023°45'612.6
2017-Nov-14 14:31N 37°40' E 023°42'612.8
2017-Nov-14 14:00N 37°46' E 023°38'612.3
2017-Nov-14 13:31N 37°52' E 023°36'510.4
2017-Nov-14 13:01N 37°57' E 023°36'1 1.1
2017-Nov-14 12:30N 37°58' E 023°36'0 0.0
2017-Nov-14 12:01N 37°58' E 023°36'0 0.0
2017-Nov-14 11:31N 37°58' E 023°36'0 0.0
2017-Nov-14 11:01N 37°58' E 023°36'0 0.0
2017-Nov-14 10:31N 37°58' E 023°36'0 0.0
2017-Nov-14 10:00N 37°58' E 023°36'0 0.0
2017-Nov-14 09:31N 37°58' E 023°36'0 0.0
2017-Nov-14 09:00N 37°58' E 023°36'0 0.0
2017-Nov-14 08:31N 37°58' E 023°36'0 0.0
2017-Nov-14 08:00N 37°58' E 023°36'0 0.0
2017-Nov-14 07:30N 37°58' E 023°36'0 0.0
2017-Nov-14 07:01N 37°58' E 023°36'1 2.8
2017-Nov-14 06:30N 37°56' E 023°36'2 3.6
2017-Nov-14 06:00N 37°54' E 023°36'0 0.9
2017-Nov-14 05:30N 37°54' E 023°35'0 1.0
2017-Nov-14 05:01N 37°54' E 023°36'1 1.6
2017-Nov-14 04:31N 37°54' E 023°37'1 2.4
2017-Nov-14 04:00N 37°53' E 023°37'2 3.3
2017-Nov-14 03:31N 37°53' E 023°39'5 9.0
2017-Nov-14 03:01N 37°49' E 023°41'5 9.2
2017-Nov-14 02:31N 37°44' E 023°44'5 9.7
2017-Nov-14 02:00N 37°40' E 023°46'611.0
2017-Nov-14 01:30N 37°36' E 023°51'611.2
2017-Nov-14 01:00N 37°33' E 023°57'811.2
2017-Nov-14 00:20N 37°30' E 024°06'2210.2
2017-Nov-13 22:10N 37°38' E 024°32'  
Track history (hours):
 
Tides and Currents Weather Stations Pressure Air Temp Water Temp Dewpoint Dewpoint Depression Visibility Wind Speed Wind Dir Waves Ship Positions

CSAV Rio Maipo

Last reported at 2017-Nov-18 21:30 UTC. Time now 2017-Nov-18 21:51 UTC.
Position N 45°34' E 013°44'.

Length 183 m; draft 8.7 m.

Type: Ship. MMSI: 305523000.

Date/timePositionNaut miles runAvg speedWind from/ knotsBaromVisibWave heightAir tempDewpointWater temp
2017-Nov-18 21:30N 45°34' E 013°44'0 0.0
2017-Nov-18 21:01N 45°34' E 013°44'0 0.0
2017-Nov-18 20:30N 45°34' E 013°44'0 0.0
2017-Nov-18 20:00N 45°34' E 013°44'0 0.0
2017-Nov-18 19:30N 45°34' E 013°44'0 0.0
2017-Nov-18 19:01N 45°34' E 013°44'0 0.0
2017-Nov-18 18:30N 45°34' E 013°44'0 0.0
2017-Nov-18 18:01N 45°34' E 013°44'0 0.0
2017-Nov-18 17:31N 45°34' E 013°44'0 0.0
2017-Nov-18 17:01N 45°34' E 013°44'0 0.0
2017-Nov-18 16:31N 45°34' E 013°44'0 0.0
2017-Nov-18 16:00N 45°34' E 013°44'0 0.0
2017-Nov-18 15:31N 45°34' E 013°44'0 0.0
2017-Nov-18 15:00N 45°34' E 013°44'0 0.0
2017-Nov-18 14:31N 45°34' E 013°44'0 0.0
2017-Nov-18 14:00N 45°34' E 013°44'0 0.0
2017-Nov-18 13:30N 45°34' E 013°44'0 0.0
2017-Nov-18 13:00N 45°34' E 013°44'0 0.0
2017-Nov-18 12:31N 45°34' E 013°44'0 0.0
2017-Nov-18 12:01N 45°34' E 013°44'0 0.0
2017-Nov-18 11:31N 45°34' E 013°44'0 0.0
2017-Nov-18 11:00N 45°34' E 013°44'0 0.0
2017-Nov-18 10:31N 45°34' E 013°44'0 0.0
2017-Nov-18 10:00N 45°34' E 013°44'0 0.0
2017-Nov-18 09:30N 45°34' E 013°44'0 0.0
2017-Nov-18 09:00N 45°34' E 013°44'0 0.0
2017-Nov-18 08:31N 45°34' E 013°44'0 0.0
2017-Nov-18 08:01N 45°34' E 013°44'0 0.0
2017-Nov-18 07:31N 45°34' E 013°44'0 0.0
2017-Nov-18 07:01N 45°34' E 013°44'0 0.4
2017-Nov-18 06:30N 45°33' E 013°44'1 2.2
2017-Nov-18 06:00N 45°34' E 013°42'2 3.1
2017-Nov-18 05:31N 45°35' E 013°41'0 0.9
2017-Nov-18 04:59N 45°35' E 013°40'0 0.1
2017-Nov-18 04:31N 45°35' E 013°41'0 0.1
2017-Nov-18 04:00N 45°35' E 013°40'0 0.1
2017-Nov-18 03:30N 45°35' E 013°40'0 0.0
2017-Nov-18 03:01N 45°35' E 013°40'0 0.0
2017-Nov-18 02:31N 45°35' E 013°40'0 0.0
2017-Nov-18 02:01N 45°35' E 013°40'0 0.0
2017-Nov-18 01:31N 45°35' E 013°41'0 0.1
2017-Nov-18 01:01N 45°35' E 013°40'0 0.0
2017-Nov-18 00:31N 45°35' E 013°40'0 0.1
2017-Nov-18 00:00N 45°35' E 013°41'0 0.1
2017-Nov-17 23:31N 45°35' E 013°40'0 0.2
2017-Nov-17 23:01N 45°35' E 013°41'0 0.1
2017-Nov-17 22:31N 45°35' E 013°40'0 0.1
2017-Nov-17 22:01N 45°35' E 013°41'0 0.1
2017-Nov-17 21:31N 45°35' E 013°40'0 0.1
2017-Nov-17 21:01N 45°35' E 013°41'0 0.1
2017-Nov-17 20:30N 45°35' E 013°41'0 0.1
2017-Nov-17 20:00N 45°35' E 013°41'0 0.0
2017-Nov-17 19:31N 45°35' E 013°41'0 0.0
2017-Nov-17 19:01N 45°35' E 013°41'0 0.0
2017-Nov-17 18:31N 45°35' E 013°40'0 0.0
2017-Nov-17 18:01N 45°35' E 013°41'0 0.0
2017-Nov-17 17:30N 45°35' E 013°41'0 0.1
2017-Nov-17 17:00N 45°35' E 013°41'0 0.1
2017-Nov-17 16:31N 45°35' E 013°40'0 0.0
2017-Nov-17 16:01N 45°35' E 013°41'0 0.0
2017-Nov-17 15:31N 45°35' E 013°40'0 0.0
2017-Nov-17 15:00N 45°35' E 013°41'0 0.1
2017-Nov-17 14:30N 45°35' E 013°41'0 0.0
2017-Nov-17 14:00N 45°35' E 013°41'0 0.2
2017-Nov-17 13:31N 45°35' E 013°41'0 0.1
2017-Nov-17 13:01N 45°35' E 013°41'0 0.1
2017-Nov-17 12:30N 45°35' E 013°41'0 0.1
2017-Nov-17 12:00N 45°35' E 013°41'0 0.2
2017-Nov-17 11:31N 45°35' E 013°41'3 5.3
2017-Nov-17 11:00N 45°35' E 013°37'4 8.6
2017-Nov-17 10:31N 45°34' E 013°31'611.7
2017-Nov-17 10:00N 45°31' E 013°24'5 9.6
2017-Nov-17 09:30N 45°28' E 013°18'612.1
2017-Nov-17 09:00N 45°24' E 013°12'611.8
2017-Nov-17 08:30N 45°18' E 013°12'612.8
2017-Nov-17 08:00N 45°12' E 013°14'713.0
2017-Nov-17 07:30N 45°05' E 013°17'612.8
2017-Nov-17 07:00N 44°59' E 013°20'612.9
2017-Nov-17 06:30N 44°54' E 013°24'612.9
2017-Nov-17 06:00N 44°48' E 013°29'612.9
2017-Nov-17 05:30N 44°43' E 013°34'612.9
2017-Nov-17 05:01N 44°37' E 013°39'713.0
2017-Nov-17 04:30N 44°32' E 013°44'612.8
2017-Nov-17 04:01N 44°27' E 013°49'612.7
2017-Nov-17 03:31N 44°21' E 013°54'612.5
2017-Nov-17 03:00N 44°16' E 013°59'612.6
2017-Nov-17 02:31N 44°11' E 014°04'  
2017-Nov-14 16:51N 37°12' E 023°43'612.3
2017-Nov-14 16:23N 37°17' E 023°45'512.4
2017-Nov-14 16:00N 37°22' E 023°45'612.3
2017-Nov-14 15:30N 37°28' E 023°45'612.2
2017-Nov-14 15:01N 37°34' E 023°45'612.6
2017-Nov-14 14:31N 37°40' E 023°42'612.8
2017-Nov-14 14:00N 37°46' E 023°38'612.3
2017-Nov-14 13:31N 37°52' E 023°36'510.4
2017-Nov-14 13:01N 37°57' E 023°36'1 1.1
2017-Nov-14 12:30N 37°58' E 023°36'0 0.0
2017-Nov-14 12:01N 37°58' E 023°36'0 0.0
2017-Nov-14 11:31N 37°58' E 023°36'0 0.0
2017-Nov-14 11:01N 37°58' E 023°36'0 0.0
2017-Nov-14 10:31N 37°58' E 023°36'0 0.0
2017-Nov-14 10:00N 37°58' E 023°36'0 0.0
2017-Nov-14 09:31N 37°58' E 023°36'0 0.0
2017-Nov-14 09:00N 37°58' E 023°36'0 0.0
2017-Nov-14 08:31N 37°58' E 023°36'0 0.0
2017-Nov-14 08:00N 37°58' E 023°36'0 0.0
2017-Nov-14 07:30N 37°58' E 023°36'0 0.0
2017-Nov-14 07:01N 37°58' E 023°36'1 2.8
2017-Nov-14 06:30N 37°56' E 023°36'2 3.6
2017-Nov-14 06:00N 37°54' E 023°36'0 0.9
2017-Nov-14 05:30N 37°54' E 023°35'0 1.0
2017-Nov-14 05:01N 37°54' E 023°36'1 1.6
2017-Nov-14 04:31N 37°54' E 023°37'1 2.4
2017-Nov-14 04:00N 37°53' E 023°37'2 3.3
2017-Nov-14 03:31N 37°53' E 023°39'5 9.0
2017-Nov-14 03:01N 37°49' E 023°41'5 9.2
2017-Nov-14 02:31N 37°44' E 023°44'5 9.7
2017-Nov-14 02:00N 37°40' E 023°46'611.0
2017-Nov-14 01:30N 37°36' E 023°51'611.2
2017-Nov-14 01:00N 37°33' E 023°57'811.2
2017-Nov-14 00:20N 37°30' E 024°06'2210.2
2017-Nov-13 22:10N 37°38' E 024°32'  

Dump ship's entire track history